Terminal Aerodrome Forecast
Issued by NWS

Home | Current Version | Previous Version | Text Only | Print | Product List | Glossary On
Versions: 1 2 3 4 5 6 7 8 9 10 11 12 13 14
000
FTUS42 KFFC 031924 AAA
TAFRYY
TAF AMD
KRYY 031924Z 0319/0418 27006KT P6SM SCT060 BKN150
      TEMPO 0319/0322 VRB12G20KT TSRA BKN030CB
     FM040000 30004KT P6SM SCT050 SCT150
     FM041400 01004KT P6SM FEW040 SCT250
     FM041700 04005KT P6SM SCT060 BKN250=

USA.gov is the U.S. government's official web portal to all federal, state and local government web resources and services.